Time,TemperatureF,DewpointF,PressureIn,WindDirection,WindDirectionDegrees,WindSpeedMPH,WindSpeedGustMPH,Humidity,HourlyPrecipIn,Conditions,Clouds,dailyrainin,SoftwareType,DateUTC
2014-02-12 00:05:00,24.2,12.3,30.11,West,263,0.0,0.0,60,0.00,,CLR,0.00,VWS V15.00,2014-02-12 07:05:00,
2014-02-12 00:11:00,24.4,12.5,30.11,West,267,0.0,0.0,60,0.00,,CLR,0.00,VWS V15.00,2014-02-12 07:11:00,
2014-02-12 00:17:00,24.5,12.6,30.11,West,267,0.0,0.0,60,0.00,,CLR,0.00,VWS V15.00,2014-02-12 07:17:00,
2014-02-12 00:22:00,24.5,12.2,30.10,West,267,0.0,0.0,59,0.00,,CLR,0.00,VWS V15.00,2014-02-12 07:22:00,
2014-02-12 00:29:00,24.7,12.4,30.10,West,267,0.0,0.0,59,0.00,,CLR,0.00,VWS V15.00,2014-02-12 07:29:00,
2014-02-12 00:35:00,24.5,12.6,30.10,West,269,0.0,0.0,60,0.00,,CLR,0.00,VWS V15.00,2014-02-12 07:35:00,
2014-02-12 00:41:00,24.7,12.8,30.10,West,269,0.0,0.0,60,0.00,,CLR,0.00,VWS V15.00,2014-02-12 07:41:00,
2014-02-12 00:47:00,24.8,13.6,30.10,West,269,0.0,0.0,62,0.00,,CLR,0.00,VWS V15.00,2014-02-12 07:47:00,
2014-02-12 00:52:00,24.8,14.0,30.09,West,269,0.0,0.0,63,0.00,,CLR,0.00,VWS V15.00,2014-02-12 07:52:00,
2014-02-12 00:57:00,24.8,14.0,30.09,West,269,0.0,0.0,63,0.00,,CLR,0.00,VWS V15.00,2014-02-12 07:57:00,
2014-02-12 01:02:00,24.8,13.6,30.09,NE,47,0.0,0.0,62,0.00,,CLR,0.00,VWS V15.00,2014-02-12 08:02:00,
2014-02-12 01:07:00,24.8,14.0,30.07,NE,47,0.0,0.0,63,0.00,,CLR,0.00,VWS V15.00,2014-02-12 08:07:00,
2014-02-12 01:12:00,24.8,14.0,30.07,NE,47,0.0,1.0,63,0.00,,CLR,0.00,VWS V15.00,2014-02-12 08:12:00,
2014-02-12 01:17:00,24.8,12.9,30.07,NE,47,0.0,0.0,60,0.00,,CLR,0.00,VWS V15.00,2014-02-12 08:17:00,
2014-02-12 01:23:00,25.0,13.8,30.04,NNE,21,0.0,0.0,62,0.00,,CLR,0.00,VWS V15.00,2014-02-12 08:23:00,
2014-02-12 01:29:00,25.0,14.6,30.04,NNE,21,0.0,0.0,64,0.00,,CLR,0.00,VWS V15.00,2014-02-12 08:29:00,
2014-02-12 01:35:00,25.1,14.3,30.04,NNW,348,0.0,0.0,63,0.00,,CLR,0.00,VWS V15.00,2014-02-12 08:35:00,
2014-02-12 01:41:00,25.1,14.3,30.03,NNW,348,0.0,0.0,63,0.00,,CLR,0.00,VWS V15.00,2014-02-12 08:41:00,
2014-02-12 01:47:00,25.3,14.5,30.03,NNW,348,0.0,0.0,63,0.00,,CLR,0.00,VWS V15.00,2014-02-12 08:47:00,
2014-02-12 01:52:00,25.3,14.5,30.02,NNW,348,0.0,0.0,63,0.00,,CLR,0.00,VWS V15.00,2014-02-12 08:52:00,
2014-02-12 01:57:00,25.4,14.6,30.02,NNW,348,0.0,0.0,63,0.00,,CLR,0.00,VWS V15.00,2014-02-12 08:57:00,
2014-02-12 02:04:00,25.4,15.3,30.02,NNW,348,0.0,0.0,65,0.00,,CLR,0.00,VWS V15.00,2014-02-12 09:04:00,
2014-02-12 02:10:00,25.4,14.6,30.02,NNW,348,0.0,0.0,63,0.00,,CLR,0.00,VWS V15.00,2014-02-12 09:10:00,
2014-02-12 02:16:00,25.4,15.6,30.02,NNW,348,0.0,0.0,66,0.00,,CLR,0.00,VWS V15.00,2014-02-12 09:16:00,
2014-02-12 02:22:00,25.6,15.5,30.01,NNW,348,0.0,0.0,65,0.00,,CLR,0.00,VWS V15.00,2014-02-12 09:22:00,
2014-02-12 02:27:00,25.8,15.7,30.01,NNW,348,0.0,0.0,65,0.00,,CLR,0.00,VWS V15.00,2014-02-12 09:27:00,
2014-02-12 02:32:00,25.8,16.0,30.01,NNW,348,0.0,0.0,66,0.00,,CLR,0.00,VWS V15.00,2014-02-12 09:32:00,
2014-02-12 02:38:00,25.8,15.7,29.99,NNW,348,0.0,0.0,65,0.00,,CLR,0.00,VWS V15.00,2014-02-12 09:38:00,
2014-02-12 02:44:00,25.8,15.7,29.99,NNW,348,0.0,0.0,65,0.00,,CLR,0.00,VWS V15.00,2014-02-12 09:44:00,
2014-02-12 02:50:00,25.8,15.3,29.99,NNW,348,0.0,0.0,64,0.00,,CLR,0.00,VWS V15.00,2014-02-12 09:50:00,
2014-02-12 02:56:00,26.0,15.9,29.99,NNW,348,0.0,0.0,65,0.00,,CLR,0.00,VWS V15.00,2014-02-12 09:56:00,
2014-02-12 03:02:00,26.0,14.8,29.99,NNW,348,0.0,0.0,62,0.00,,CLR,0.00,VWS V15.00,2014-02-12 10:02:00,
2014-02-12 03:07:00,26.0,15.5,29.97,NNW,348,0.0,0.0,64,0.00,,CLR,0.00,VWS V15.00,2014-02-12 10:07:00,
2014-02-12 03:12:00,26.0,16.2,29.97,NNW,348,0.0,0.0,66,0.00,,CLR,0.00,VWS V15.00,2014-02-12 10:12:00,
2014-02-12 03:18:00,25.8,15.3,29.97,North,5,1.0,2.0,64,0.00,,CLR,0.00,VWS V15.00,2014-02-12 10:18:00,
2014-02-12 03:25:00,25.8,15.7,29.97,North,5,0.0,0.0,65,0.00,,CLR,0.00,VWS V15.00,2014-02-12 10:25:00,
2014-02-12 03:31:00,25.8,15.7,29.97,North,5,0.0,0.0,65,0.00,,CLR,0.00,VWS V15.00,2014-02-12 10:31:00,
2014-02-12 03:37:00,25.7,15.9,29.94,North,5,0.0,0.0,66,0.00,,CLR,0.00,VWS V15.00,2014-02-12 10:37:00,
2014-02-12 03:42:00,25.7,14.9,29.94,North,355,0.0,3.0,63,0.00,,CLR,0.00,VWS V15.00,2014-02-12 10:42:00,
2014-02-12 03:47:00,25.8,16.0,29.94,North,355,0.0,1.0,66,0.00,,CLR,0.00,VWS V15.00,2014-02-12 10:47:00,
2014-02-12 03:52:00,25.8,16.0,29.93,NE,40,0.0,1.0,66,0.00,,CLR,0.00,VWS V15.00,2014-02-12 10:52:00,
2014-02-12 03:57:00,25.7,16.3,29.93,NE,40,0.0,0.0,67,0.00,,CLR,0.00,VWS V15.00,2014-02-12 10:57:00,
2014-02-12 04:03:00,25.7,15.9,29.93,NE,40,0.0,0.0,66,0.00,,CLR,0.00,VWS V15.00,2014-02-12 11:03:00,
2014-02-12 04:09:00,25.6,16.2,29.93,SSE,163,0.0,0.0,67,0.00,,CLR,0.00,VWS V15.00,2014-02-12 11:09:00,
2014-02-12 04:15:00,25.7,16.6,29.93,North,5,1.0,1.0,68,0.00,,CLR,0.00,VWS V15.00,2014-02-12 11:15:00,
2014-02-12 04:21:00,25.7,16.6,29.90,NW,321,0.0,1.0,68,0.00,,CLR,0.00,VWS V15.00,2014-02-12 11:21:00,
2014-02-12 04:27:00,25.7,16.3,29.90,NW,321,0.0,0.0,67,0.00,,CLR,0.00,VWS V15.00,2014-02-12 11:27:00,
2014-02-12 04:33:00,25.8,16.7,29.90,NW,321,0.0,0.0,68,0.00,,CLR,0.00,VWS V15.00,2014-02-12 11:33:00,
2014-02-12 04:39:00,26.0,16.9,29.89,NW,321,0.0,0.0,68,0.00,,CLR,0.00,VWS V15.00,2014-02-12 11:39:00,
2014-02-12 04:45:00,26.1,17.0,29.89,NW,321,0.0,0.0,68,0.00,,CLR,0.00,VWS V15.00,2014-02-12 11:45:00,
2014-02-12 04:51:00,26.1,17.0,29.88,NW,321,0.0,0.0,68,0.00,,CLR,0.00,VWS V15.00,2014-02-12 11:51:00,
2014-02-12 04:57:00,26.3,17.2,29.88,NW,321,0.0,0.0,68,0.00,,CLR,0.00,VWS V15.00,2014-02-12 11:57:00,
2014-02-12 05:03:00,26.6,17.1,29.88,NW,321,0.0,0.0,67,0.00,,CLR,0.00,VWS V15.00,2014-02-12 12:03:00,
2014-02-12 05:10:00,26.6,17.1,29.87,NW,321,0.0,0.0,67,0.00,,CLR,0.00,VWS V15.00,2014-02-12 12:10:00,
2014-02-12 05:16:00,26.7,17.6,29.87,East,80,0.0,2.0,68,0.00,,CLR,0.00,VWS V15.00,2014-02-12 12:16:00,
2014-02-12 05:22:00,26.7,17.9,29.87,East,80,0.0,0.0,69,0.00,,CLR,0.00,VWS V15.00,2014-02-12 12:22:00,
2014-02-12 05:27:00,27.0,17.5,29.87,North,9,0.0,4.0,67,0.00,,CLR,0.00,VWS V15.00,2014-02-12 12:27:00,
2014-02-12 05:32:00,27.5,17.6,29.87,NE,49,0.0,3.0,66,0.00,,CLR,0.00,VWS V15.00,2014-02-12 12:32:00,
2014-02-12 05:37:00,27.6,17.4,29.84,NE,54,0.0,3.0,65,0.00,,CLR,0.00,VWS V15.00,2014-02-12 12:37:00,
2014-02-12 05:42:00,27.9,17.3,29.84,NE,34,4.0,4.0,64,0.00,,CLR,0.00,VWS V15.00,2014-02-12 12:42:00,
2014-02-12 05:48:00,28.4,17.4,29.84,ENE,69,0.0,0.0,63,0.00,,CLR,0.00,VWS V15.00,2014-02-12 12:48:00,
2014-02-12 05:54:00,28.5,18.6,29.83,NNE,19,0.0,3.0,66,0.00,,CLR,0.00,VWS V15.00,2014-02-12 12:54:00,
2014-02-12 06:00:00,28.7,18.4,29.83,NE,48,0.0,1.0,65,0.00,,CLR,0.00,VWS V15.00,2014-02-12 13:00:00,
2014-02-12 06:06:00,28.7,18.8,29.82,ENE,73,0.0,3.0,66,0.00,,CLR,0.00,VWS V15.00,2014-02-12 13:06:00,
2014-02-12 06:12:00,28.7,19.1,29.82,ENE,73,0.0,0.0,67,0.00,,CLR,0.00,VWS V15.00,2014-02-12 13:12:00,
2014-02-12 06:17:00,29.0,18.0,29.82,ENE,77,0.0,5.0,63,0.00,,CLR,0.00,VWS V15.00,2014-02-12 13:17:00,
2014-02-12 06:22:00,29.4,19.5,29.81,NE,51,0.0,0.0,66,0.00,,CLR,0.00,VWS V15.00,2014-02-12 13:22:00,
2014-02-12 06:28:00,29.5,18.8,29.81,NNW,329,0.0,2.0,64,0.00,,CLR,0.00,VWS V15.00,2014-02-12 13:28:00,
2014-02-12 06:34:00,30.0,20.0,29.81,NE,56,0.0,3.0,66,0.00,,CLR,0.00,VWS V15.00,2014-02-12 13:34:00,
2014-02-12 06:40:00,30.6,19.9,29.78,ENE,62,3.0,4.0,64,0.00,,CLR,0.00,VWS V15.00,2014-02-12 13:40:00,
2014-02-12 06:46:00,31.0,19.9,29.78,ENE,69,0.0,4.0,63,0.00,,CLR,0.00,VWS V15.00,2014-02-12 13:46:00,
2014-02-12 06:52:00,31.3,20.5,29.78,NE,52,0.0,3.0,64,0.00,,CLR,0.00,VWS V15.00,2014-02-12 13:52:00,
2014-02-12 06:57:00,31.5,20.7,29.78,NW,315,0.0,2.0,64,0.00,,CLR,0.00,VWS V15.00,2014-02-12 13:57:00,
2014-02-12 07:02:00,31.6,21.2,29.78,NNE,20,0.0,0.0,65,0.00,,CLR,0.00,VWS V15.00,2014-02-12 14:02:00,
2014-02-12 07:08:00,31.9,21.5,29.77,East,80,1.0,6.0,65,0.00,,CLR,0.00,VWS V15.00,2014-02-12 14:08:00,
2014-02-12 07:14:00,32.4,22.0,29.77,ENE,64,1.0,11.0,65,0.00,,CLR,0.00,VWS V15.00,2014-02-12 14:14:00,
2014-02-12 07:20:00,32.9,22.4,29.77,NE,49,0.0,4.0,65,0.00,,CLR,0.00,VWS V15.00,2014-02-12 14:20:00,
2014-02-12 07:26:00,33.4,22.9,29.76,ENE,66,1.0,10.0,65,0.00,,CLR,0.00,VWS V15.00,2014-02-12 14:26:00,
2014-02-12 07:32:00,33.4,23.3,29.76,NE,44,2.0,6.0,66,0.00,,CLR,0.00,VWS V15.00,2014-02-12 14:32:00,
2014-02-12 07:37:00,33.4,23.6,29.74,NE,42,2.0,14.0,67,0.00,,CLR,0.00,VWS V15.00,2014-02-12 14:37:00,
2014-02-12 07:43:00,33.4,24.0,29.74,ENE,63,3.0,3.0,68,0.00,,CLR,0.00,VWS V15.00,2014-02-12 14:43:00,
2014-02-12 07:49:00,33.4,24.3,29.74,North,5,0.0,4.0,69,0.00,,CLR,0.00,VWS V15.00,2014-02-12 14:49:00,
2014-02-12 07:55:00,33.2,23.1,29.75,North,5,2.0,8.0,66,0.00,,CLR,0.00,VWS V15.00,2014-02-12 14:55:00,
2014-02-12 08:01:00,33.5,23.0,29.75,North,9,4.0,7.0,65,0.00,,CLR,0.00,VWS V15.00,2014-02-12 15:01:00,
2014-02-12 08:07:00,33.7,23.2,29.75,ENE,60,3.0,10.0,65,0.00,,CLR,0.00,VWS V15.00,2014-02-12 15:07:00,
2014-02-12 08:12:00,33.8,22.9,29.75,NNE,22,5.0,9.0,64,0.00,,CLR,0.00,VWS V15.00,2014-02-12 15:12:00,
2014-02-12 08:19:00,34.3,23.4,29.75,WNW,287,1.0,11.0,64,0.00,,CLR,0.00,VWS V15.00,2014-02-12 15:19:00,
2014-02-12 08:25:00,34.7,23.4,29.76,NNE,13,6.0,17.0,63,0.00,,CLR,0.00,VWS V15.00,2014-02-12 15:25:00,
2014-02-12 08:31:00,35.3,24.4,29.76,NE,49,3.0,11.0,64,0.00,,CLR,0.00,VWS V15.00,2014-02-12 15:31:00,
2014-02-12 08:37:00,35.5,24.2,29.73,NNW,333,3.0,16.0,63,0.00,,CLR,0.00,VWS V15.00,2014-02-12 15:37:00,
2014-02-12 08:43:00,35.9,24.2,29.73,NNW,327,3.0,13.0,62,0.00,,CLR,0.00,VWS V15.00,2014-02-12 15:43:00,
2014-02-12 08:49:00,36.0,24.6,29.73,WNW,294,12.0,12.0,63,0.00,,CLR,0.00,VWS V15.00,2014-02-12 15:49:00,
2014-02-12 08:55:00,36.5,24.3,29.73,North,360,0.0,10.0,61,0.00,,CLR,0.00,VWS V15.00,2014-02-12 15:55:00,
2014-02-12 09:01:00,36.8,24.2,29.73,NNW,328,2.0,16.0,60,0.00,,CLR,0.00,VWS V15.00,2014-02-12 16:01:00,
2014-02-12 09:07:00,36.9,25.1,29.73,NNW,348,2.0,13.0,62,0.00,,CLR,0.00,VWS V15.00,2014-02-12 16:07:00,
2014-02-12 09:12:00,36.9,24.7,29.73,NNE,14,6.0,12.0,61,0.00,,CLR,0.00,VWS V15.00,2014-02-12 16:12:00,
2014-02-12 09:13:00,36.9,24.3,29.73,ENE,61,4.0,6.0,60,0.00,,CLR,0.00,VWS V15.00,2014-02-12 16:13:00,
2014-02-12 09:19:00,37.2,24.2,29.73,North,355,2.0,12.0,59,0.00,,CLR,0.00,VWS V15.00,2014-02-12 16:19:00,
2014-02-12 09:25:00,37.3,25.1,29.73,ENE,65,3.0,5.0,61,0.00,,CLR,0.00,VWS V15.00,2014-02-12 16:25:00,
2014-02-12 09:31:00,37.2,25.0,29.73,NNE,15,5.0,7.0,61,0.00,,CLR,0.00,VWS V15.00,2014-02-12 16:31:00,
2014-02-12 09:37:00,37.3,25.5,29.71,ENE,69,1.0,11.0,62,0.00,,CLR,0.00,VWS V15.00,2014-02-12 16:37:00,
2014-02-12 09:42:00,37.3,25.1,29.71,ENE,59,1.0,7.0,61,0.00,,CLR,0.00,VWS V15.00,2014-02-12 16:42:00,
2014-02-12 09:47:00,37.5,24.9,29.71,NW,323,10.0,10.0,60,0.00,,CLR,0.00,VWS V15.00,2014-02-12 16:47:00,
2014-02-12 09:52:00,37.6,25.8,29.69,East,90,0.0,10.0,62,0.00,,CLR,0.00,VWS V15.00,2014-02-12 16:52:00,
2014-02-12 09:57:00,37.8,25.6,29.69,East,84,1.0,8.0,61,0.00,,CLR,0.00,VWS V15.00,2014-02-12 16:57:00,
2014-02-12 10:04:00,37.9,26.8,29.69,NE,35,0.0,3.0,64,0.00,,CLR,0.00,VWS V15.00,2014-02-12 17:04:00,
2014-02-12 10:10:00,37.9,26.5,29.70,NNW,348,0.0,7.0,63,0.00,,CLR,0.00,VWS V15.00,2014-02-12 17:10:00,
2014-02-12 10:16:00,37.9,26.1,29.70,East,89,0.0,6.0,62,0.00,,CLR,0.00,VWS V15.00,2014-02-12 17:16:00,
2014-02-12 10:22:00,38.0,26.5,29.70,North,360,3.0,12.0,63,0.00,,CLR,0.00,VWS V15.00,2014-02-12 17:22:00,
2014-02-12 10:27:00,38.2,26.3,29.70,WNW,294,8.0,10.0,62,0.00,,CLR,0.00,VWS V15.00,2014-02-12 17:27:00,
2014-02-12 10:32:00,38.6,25.5,29.70,NNW,341,1.0,11.0,59,0.00,,CLR,0.00,VWS V15.00,2014-02-12 17:32:00,
2014-02-12 10:37:00,39.1,26.4,29.68,NNE,12,4.0,9.0,60,0.00,,CLR,0.00,VWS V15.00,2014-02-12 17:37:00,
2014-02-12 10:42:00,39.2,26.9,29.68,SE,135,0.0,6.0,61,0.00,,CLR,0.00,VWS V15.00,2014-02-12 17:42:00,
2014-02-12 10:47:00,39.3,27.8,29.68,North,9,0.0,5.0,63,0.00,,CLR,0.00,VWS V15.00,2014-02-12 17:47:00,
2014-02-12 10:52:00,39.3,26.6,29.67,NNE,29,0.0,6.0,60,0.00,,CLR,0.00,VWS V15.00,2014-02-12 17:52:00,
2014-02-12 10:58:00,39.8,27.5,29.67,WNW,298,0.0,2.0,61,0.00,,CLR,0.00,VWS V15.00,2014-02-12 17:58:00,
2014-02-12 11:04:00,40.1,26.9,29.67,NNE,17,0.0,4.0,59,0.00,,CLR,0.00,VWS V15.00,2014-02-12 18:04:00,
2014-02-12 11:10:00,40.5,26.5,29.68,NW,323,0.0,17.0,57,0.00,,CLR,0.00,VWS V15.00,2014-02-12 18:10:00,
2014-02-12 11:16:00,40.6,27.8,29.68,NNE,27,0.0,4.0,60,0.00,,CLR,0.00,VWS V15.00,2014-02-12 18:16:00,
2014-02-12 11:22:00,40.5,26.9,29.68,East,100,1.0,5.0,58,0.01,,CLR,0.01,VWS V15.00,2014-02-12 18:22:00,
2014-02-12 11:27:00,40.8,26.8,29.68,NNW,346,7.0,7.0,57,0.01,,CLR,0.01,VWS V15.00,2014-02-12 18:27:00,
2014-02-12 11:32:00,40.9,27.7,29.68,East,89,3.0,13.0,59,0.01,,CLR,0.01,VWS V15.00,2014-02-12 18:32:00,
2014-02-12 11:38:00,41.1,27.0,29.67,NE,35,1.0,3.0,57,0.01,,CLR,0.01,VWS V15.00,2014-02-12 18:38:00,
2014-02-12 11:44:00,40.9,27.3,29.67,NE,47,9.0,13.0,58,0.01,,CLR,0.01,VWS V15.00,2014-02-12 18:44:00,
2014-02-12 11:50:00,41.2,27.6,29.67,NNW,335,0.0,6.0,58,0.01,,CLR,0.01,VWS V15.00,2014-02-12 18:50:00,
2014-02-12 11:56:00,41.5,26.5,29.66,NW,313,0.0,10.0,55,0.01,,CLR,0.01,VWS V15.00,2014-02-12 18:56:00,
2014-02-12 12:02:00,41.8,26.8,29.66,NE,53,0.0,9.0,55,0.01,,CLR,0.01,VWS V15.00,2014-02-12 19:02:00,
2014-02-12 12:07:00,41.9,27.4,29.64,NE,36,1.0,9.0,56,0.01,,CLR,0.01,VWS V15.00,2014-02-12 19:07:00,
2014-02-12 12:12:00,41.9,26.9,29.64,SSW,194,1.0,10.0,55,0.01,,CLR,0.01,VWS V15.00,2014-02-12 19:12:00,
2014-02-12 12:17:00,42.5,27.0,29.64,WNW,286,4.0,7.0,54,0.02,,CLR,0.02,VWS V15.00,2014-02-12 19:17:00,
2014-02-12 12:22:00,42.6,26.7,29.62,North,355,0.0,8.0,53,0.03,,CLR,0.03,VWS V15.00,2014-02-12 19:22:00,
2014-02-12 12:27:00,42.8,27.3,29.62,WNW,292,1.0,10.0,54,0.03,,CLR,0.04,VWS V15.00,2014-02-12 19:27:00,
2014-02-12 12:32:00,43.1,28.0,29.62,North,355,6.0,16.0,55,0.03,,CLR,0.04,VWS V15.00,2014-02-12 19:32:00,
2014-02-12 12:37:00,43.3,27.8,29.62,NNE,12,4.0,7.0,54,0.04,,CLR,0.05,VWS V15.00,2014-02-12 19:37:00,
2014-02-12 12:42:00,43.3,27.3,29.62,NNW,329,2.0,16.0,53,0.05,,CLR,0.06,VWS V15.00,2014-02-12 19:42:00,
2014-02-12 12:49:00,43.3,27.3,29.62,ENE,63,4.0,11.0,53,0.06,,CLR,0.07,VWS V15.00,2014-02-12 19:49:00,
2014-02-12 12:55:00,43.3,26.9,29.61,West,265,1.0,10.0,52,0.07,,CLR,0.08,VWS V15.00,2014-02-12 19:55:00,
2014-02-12 13:01:00,43.3,26.9,29.61,North,5,4.0,7.0,52,0.08,,CLR,0.09,VWS V15.00,2014-02-12 20:01:00,
2014-02-12 13:07:00,43.5,26.6,29.60,East,88,10.0,10.0,51,0.09,,CLR,0.10,VWS V15.00,2014-02-12 20:07:00,
2014-02-12 13:12:00,43.5,28.0,29.60,NE,40,0.0,9.0,54,0.10,,CLR,0.11,VWS V15.00,2014-02-12 20:12:00,
2014-02-12 13:17:00,43.3,27.8,29.60,East,82,0.0,7.0,54,0.11,,CLR,0.12,VWS V15.00,2014-02-12 20:17:00,
2014-02-12 13:22:00,43.1,28.0,29.60,NNE,27,4.0,5.0,55,0.10,,CLR,0.12,VWS V15.00,2014-02-12 20:22:00,
2014-02-12 13:27:00,42.9,27.4,29.60,NNE,19,2.0,10.0,54,0.10,,CLR,0.13,VWS V15.00,2014-02-12 20:27:00,
2014-02-12 13:33:00,42.9,27.9,29.60,NE,36,2.0,3.0,55,0.10,,CLR,0.14,VWS V15.00,2014-02-12 20:33:00,
2014-02-12 13:39:00,43.1,28.0,29.60,NNE,14,5.0,7.0,55,0.10,,CLR,0.15,VWS V15.00,2014-02-12 20:39:00,
2014-02-12 13:45:00,43.3,26.9,29.60,NE,51,3.0,7.0,52,0.10,,CLR,0.16,VWS V15.00,2014-02-12 20:45:00,
2014-02-12 13:51:00,43.6,28.1,29.61,NE,55,0.0,4.0,54,0.09,,CLR,0.16,VWS V15.00,2014-02-12 20:51:00,
2014-02-12 13:57:00,43.5,28.0,29.61,North,5,5.0,10.0,54,0.09,,CLR,0.17,VWS V15.00,2014-02-12 20:57:00,
2014-02-12 14:02:00,43.1,28.5,29.61,NE,42,0.0,5.0,56,0.08,,CLR,0.17,VWS V15.00,2014-02-12 21:02:00,
2014-02-12 14:07:00,42.6,29.7,29.62,NE,42,0.0,1.0,60,0.08,,CLR,0.17,VWS V15.00,2014-02-12 21:07:00,
2014-02-12 14:13:00,41.8,27.7,29.62,WNW,292,1.0,6.0,57,0.06,,CLR,0.17,VWS V15.00,2014-02-12 21:13:00,
2014-02-12 14:19:00,42.2,30.1,29.62,ESE,106,0.0,1.0,62,0.05,,CLR,0.17,VWS V15.00,2014-02-12 21:19:00,
2014-02-12 14:25:00,42.5,28.8,29.63,North,351,4.0,10.0,58,0.06,,CLR,0.18,VWS V15.00,2014-02-12 21:25:00,
2014-02-12 14:31:00,42.3,29.4,29.63,North,350,0.0,2.0,60,0.05,,CLR,0.18,VWS V15.00,2014-02-12 21:31:00,
2014-02-12 14:37:00,41.9,30.6,29.63,ENE,66,0.0,1.0,64,0.04,,CLR,0.18,VWS V15.00,2014-02-12 21:37:00,
2014-02-12 14:43:00,41.2,30.0,29.63,NE,34,0.0,1.0,64,0.04,,CLR,0.19,VWS V15.00,2014-02-12 21:43:00,
2014-02-12 14:49:00,41.2,29.6,29.63,NE,42,1.0,2.0,63,0.03,,CLR,0.19,VWS V15.00,2014-02-12 21:49:00,
2014-02-12 14:55:00,41.2,31.8,29.66,ESE,122,0.0,11.0,69,0.05,,CLR,0.21,VWS V15.00,2014-02-12 21:55:00,
2014-02-12 15:01:00,40.8,31.8,29.66,ESE,113,1.0,6.0,70,0.04,,CLR,0.21,VWS V15.00,2014-02-12 22:01:00,
2014-02-12 15:07:00,40.3,31.3,29.66,ESE,113,0.0,0.0,70,0.05,,CLR,0.22,VWS V15.00,2014-02-12 22:07:00,
2014-02-12 15:14:00,40.1,30.0,29.66,WNW,283,3.0,11.0,67,0.05,,CLR,0.22,VWS V15.00,2014-02-12 22:14:00,
2014-02-12 15:20:00,40.1,31.5,29.66,NNE,30,0.0,2.0,71,0.06,,CLR,0.23,VWS V15.00,2014-02-12 22:20:00,
2014-02-12 15:26:00,39.6,31.0,29.65,NNE,21,3.0,5.0,71,0.06,,CLR,0.23,VWS V15.00,2014-02-12 22:26:00,
2014-02-12 15:32:00,39.6,30.3,29.65,ENE,75,0.0,3.0,69,0.06,,CLR,0.24,VWS V15.00,2014-02-12 22:32:00,
2014-02-12 15:37:00,40.1,29.7,29.68,East,81,0.0,9.0,66,0.06,,CLR,0.24,VWS V15.00,2014-02-12 22:37:00,
2014-02-12 15:42:00,40.5,29.7,29.68,NE,40,0.0,5.0,65,0.07,,CLR,0.25,VWS V15.00,2014-02-12 22:42:00,
2014-02-12 15:48:00,40.5,29.3,29.68,North,351,0.0,3.0,64,0.06,,CLR,0.25,VWS V15.00,2014-02-12 22:48:00,
2014-02-12 15:54:00,40.5,29.3,29.68,SE,140,0.0,3.0,64,0.06,,CLR,0.26,VWS V15.00,2014-02-12 22:54:00,
2014-02-12 16:00:00,40.5,28.1,29.68,NNE,30,1.0,11.0,61,0.05,,CLR,0.26,VWS V15.00,2014-02-12 23:00:00,
2014-02-12 16:06:00,40.8,27.6,29.68,NW,305,1.0,6.0,59,0.05,,CLR,0.26,VWS V15.00,2014-02-12 23:06:00,
2014-02-12 16:12:00,41.1,27.9,29.70,SSW,211,1.0,11.0,59,0.05,,CLR,0.27,VWS V15.00,2014-02-12 23:12:00,
2014-02-12 16:18:00,41.1,28.3,29.70,WSW,257,1.0,5.0,60,0.04,,CLR,0.27,VWS V15.00,2014-02-12 23:18:00,
2014-02-12 16:24:00,41.2,27.6,29.70,NNE,27,1.0,12.0,58,0.05,,CLR,0.28,VWS V15.00,2014-02-12 23:24:00,
2014-02-12 16:30:00,41.5,27.0,29.70,North,355,3.0,6.0,56,0.05,,CLR,0.28,VWS V15.00,2014-02-12 23:30:00,
2014-02-12 16:36:00,41.5,26.5,29.71,North,5,6.0,13.0,55,0.04,,CLR,0.28,VWS V15.00,2014-02-12 23:36:00,
2014-02-12 16:42:00,41.2,27.1,29.71,WNW,290,4.0,10.0,57,0.05,,CLR,0.29,VWS V15.00,2014-02-12 23:42:00,
2014-02-12 16:47:00,40.9,27.7,29.71,NNW,346,0.0,5.0,59,0.04,,CLR,0.29,VWS V15.00,2014-02-12 23:47:00,
2014-02-12 16:52:00,40.8,27.6,29.73,North,355,1.0,4.0,59,0.04,,CLR,0.29,VWS V15.00,2014-02-12 23:52:00,
2014-02-12 16:58:00,40.5,26.9,29.73,ENE,74,3.0,3.0,58,0.03,,CLR,0.29,VWS V15.00,2014-02-12 23:58:00,
2014-02-12 17:04:00,40.2,27.0,29.73,NNE,25,0.0,5.0,59,0.04,,CLR,0.30,VWS V15.00,2014-02-13 00:04:00,
2014-02-12 17:10:00,39.9,26.3,29.76,ENE,76,1.0,11.0,58,0.03,,CLR,0.30,VWS V15.00,2014-02-13 00:10:00,
2014-02-12 17:17:00,39.9,26.3,29.76,West,278,0.0,4.0,58,0.03,,CLR,0.30,VWS V15.00,2014-02-13 00:17:00,
2014-02-12 17:22:00,39.5,26.4,29.77,East,86,0.0,2.0,59,0.03,,CLR,0.30,VWS V15.00,2014-02-13 00:22:00,
2014-02-12 17:27:00,39.3,26.6,29.77,SSW,209,1.0,2.0,60,0.03,,CLR,0.30,VWS V15.00,2014-02-13 00:27:00,
2014-02-12 17:33:00,39.3,25.8,29.77,ENE,69,0.0,0.0,58,0.03,,CLR,0.31,VWS V15.00,2014-02-13 00:33:00,
2014-02-12 17:39:00,39.3,26.2,29.78,West,281,0.0,1.0,59,0.03,,CLR,0.31,VWS V15.00,2014-02-13 00:39:00,
2014-02-12 17:45:00,39.2,26.5,29.78,NNW,329,0.0,4.0,60,0.02,,CLR,0.31,VWS V15.00,2014-02-13 00:45:00,
2014-02-12 17:51:00,39.1,26.0,29.78,WSW,242,1.0,5.0,59,0.02,,CLR,0.31,VWS V15.00,2014-02-13 00:51:00,
2014-02-12 17:57:00,39.1,26.0,29.79,WNW,295,10.0,12.0,59,0.02,,CLR,0.31,VWS V15.00,2014-02-13 00:57:00,
2014-02-12 18:02:00,39.2,26.5,29.79,NE,53,2.0,10.0,60,0.02,,CLR,0.31,VWS V15.00,2014-02-13 01:02:00,
2014-02-12 18:07:00,39.2,26.1,29.80,North,5,0.0,4.0,59,0.02,,CLR,0.31,VWS V15.00,2014-02-13 01:07:00,
2014-02-12 18:12:00,39.1,26.0,29.80,NW,322,0.0,4.0,59,0.01,,CLR,0.31,VWS V15.00,2014-02-13 01:12:00,
2014-02-12 18:17:00,38.9,25.8,29.80,NW,304,0.0,2.0,59,0.01,,CLR,0.31,VWS V15.00,2014-02-13 01:17:00,
2014-02-12 18:23:00,38.6,24.7,29.79,WNW,289,0.0,12.0,57,0.01,,CLR,0.31,VWS V15.00,2014-02-13 01:23:00,
2014-02-12 18:29:00,38.6,25.1,29.79,WNW,292,0.0,4.0,58,0.02,,CLR,0.32,VWS V15.00,2014-02-13 01:29:00,
2014-02-12 18:35:00,38.5,25.0,29.79,NNW,327,0.0,6.0,58,0.01,,CLR,0.32,VWS V15.00,2014-02-13 01:35:00,
2014-02-12 18:41:00,38.2,25.1,29.79,East,82,1.0,4.0,59,0.01,,CLR,0.32,VWS V15.00,2014-02-13 01:41:00,
2014-02-12 18:47:00,38.2,23.9,29.79,NNE,23,1.0,6.0,56,0.01,,CLR,0.32,VWS V15.00,2014-02-13 01:47:00,
2014-02-12 18:52:00,38.0,24.1,29.79,NNE,26,8.0,9.0,57,0.01,,CLR,0.32,VWS V15.00,2014-02-13 01:52:00,
2014-02-12 18:57:00,38.3,22.7,29.79,ENE,75,0.0,8.0,53,0.01,,CLR,0.32,VWS V15.00,2014-02-13 01:57:00,
2014-02-12 19:04:00,38.5,22.9,29.79,SE,126,0.0,5.0,53,0.01,,CLR,0.32,VWS V15.00,2014-02-13 02:04:00,
2014-02-12 19:10:00,38.3,23.1,29.79,NNW,341,1.0,4.0,54,0.01,,CLR,0.32,VWS V15.00,2014-02-13 02:10:00,
2014-02-12 19:16:00,38.0,23.3,29.79,NE,36,2.0,3.0,55,0.01,,CLR,0.32,VWS V15.00,2014-02-13 02:16:00,
2014-02-12 19:22:00,37.8,22.7,29.78,WSW,254,0.0,8.0,54,0.01,,CLR,0.32,VWS V15.00,2014-02-13 02:22:00,
2014-02-12 19:27:00,37.6,22.9,29.78,ENE,59,0.0,3.0,55,0.01,,CLR,0.32,VWS V15.00,2014-02-13 02:27:00,
2014-02-12 19:32:00,37.5,22.8,29.78,NNE,17,5.0,14.0,55,0.01,,CLR,0.32,VWS V15.00,2014-02-13 02:32:00,
2014-02-12 19:38:00,37.5,22.4,29.76,NE,56,0.0,11.0,54,0.00,,CLR,0.32,VWS V15.00,2014-02-13 02:38:00,
2014-02-12 19:44:00,37.6,22.0,29.76,ENE,61,4.0,4.0,53,0.00,,CLR,0.32,VWS V15.00,2014-02-13 02:44:00,
2014-02-12 19:50:00,37.8,21.8,29.76,NW,325,4.0,11.0,52,0.00,,CLR,0.32,VWS V15.00,2014-02-13 02:50:00,
2014-02-12 19:56:00,37.9,21.9,29.77,North,9,0.0,8.0,52,0.00,,CLR,0.32,VWS V15.00,2014-02-13 02:56:00,
2014-02-12 20:02:00,37.6,22.5,29.77,ENE,61,7.0,11.0,54,0.00,,CLR,0.32,VWS V15.00,2014-02-13 03:02:00,
2014-02-12 20:08:00,37.5,22.8,29.77,NE,52,1.0,5.0,55,0.00,,CLR,0.32,VWS V15.00,2014-02-13 03:08:00,
2014-02-12 20:14:00,37.5,21.9,29.77,NE,56,2.0,5.0,53,0.00,,CLR,0.32,VWS V15.00,2014-02-13 03:14:00,
2014-02-12 20:20:00,37.5,22.4,29.77,East,83,2.0,12.0,54,0.00,,CLR,0.32,VWS V15.00,2014-02-13 03:20:00,
2014-02-12 20:26:00,37.3,22.6,29.76,NNE,24,0.0,7.0,55,0.00,,CLR,0.32,VWS V15.00,2014-02-13 03:26:00,
2014-02-12 20:32:00,37.2,22.5,29.76,NE,47,1.0,10.0,55,0.00,,CLR,0.32,VWS V15.00,2014-02-13 03:32:00,
2014-02-12 20:37:00,37.0,22.4,29.77,East,100,0.0,10.0,55,0.00,,CLR,0.32,VWS V15.00,2014-02-13 03:37:00,
2014-02-12 20:42:00,36.9,21.8,29.77,NNE,29,0.0,4.0,54,0.00,,CLR,0.32,VWS V15.00,2014-02-13 03:42:00,
2014-02-12 20:48:00,36.9,21.8,29.77,ENE,61,0.0,6.0,54,0.00,,CLR,0.32,VWS V15.00,2014-02-13 03:48:00,
2014-02-12 20:54:00,36.8,22.6,29.77,NE,42,1.0,4.0,56,0.01,,CLR,0.33,VWS V15.00,2014-02-13 03:54:00,
2014-02-12 21:00:00,36.5,21.9,29.77,NW,326,4.0,7.0,55,0.01,,CLR,0.33,VWS V15.00,2014-02-13 04:00:00,
2014-02-12 21:07:00,36.5,21.5,29.79,North,360,4.0,6.0,54,0.01,,CLR,0.33,VWS V15.00,2014-02-13 04:07:00,
2014-02-12 21:12:00,36.5,21.5,29.79,NW,321,4.0,6.0,54,0.01,,CLR,0.33,VWS V15.00,2014-02-13 04:12:00,
2014-02-12 21:19:00,36.3,21.7,29.79,NE,41,0.0,2.0,55,0.01,,CLR,0.33,VWS V15.00,2014-02-13 04:19:00,
2014-02-12 21:25:00,36.0,22.3,29.79,NNW,348,0.0,0.0,57,0.01,,CLR,0.33,VWS V15.00,2014-02-13 04:25:00,
2014-02-12 21:31:00,35.5,23.0,29.79,NE,49,1.0,2.0,60,0.01,,CLR,0.33,VWS V15.00,2014-02-13 04:31:00,
2014-02-12 21:37:00,34.9,24.0,29.81,ENE,59,0.0,0.0,64,0.01,,CLR,0.33,VWS V15.00,2014-02-13 04:37:00,
2014-02-12 21:42:00,34.3,23.4,29.81,ENE,63,0.0,1.0,64,0.01,,CLR,0.33,VWS V15.00,2014-02-13 04:42:00,
2014-02-12 21:47:00,34.0,24.2,29.81,ENE,63,0.0,0.0,67,0.01,,CLR,0.33,VWS V15.00,2014-02-13 04:47:00,
2014-02-12 21:52:00,33.7,22.8,29.80,ENE,63,0.0,0.0,64,0.01,,CLR,0.33,VWS V15.00,2014-02-13 04:52:00,
2014-02-12 21:57:00,33.7,24.3,29.80,ENE,63,0.0,0.0,68,0.01,,CLR,0.33,VWS V15.00,2014-02-13 04:57:00,
2014-02-12 22:01:00,33.5,24.4,29.80,ENE,63,0.0,0.0,69,0.00,,CLR,0.33,VWS V15.00,2014-02-13 05:01:00,
2014-02-12 22:02:00,33.4,24.3,29.80,ENE,63,0.0,0.0,69,0.00,,CLR,0.33,VWS V15.00,2014-02-13 05:02:00,
2014-02-12 22:09:00,33.1,23.7,29.81,ENE,63,0.0,0.0,68,0.00,,CLR,0.33,VWS V15.00,2014-02-13 05:09:00,
2014-02-12 22:11:00,33.1,24.4,29.81,ENE,63,0.0,0.0,70,0.00,,CLR,0.33,VWS V15.00,2014-02-13 05:11:00,
2014-02-12 22:15:00,32.9,24.2,29.81,ENE,63,0.0,0.0,70,0.00,,CLR,0.33,VWS V15.00,2014-02-13 05:15:00,
2014-02-12 22:19:00,32.9,23.9,29.81,ENE,74,0.0,4.0,69,0.00,,CLR,0.33,VWS V15.00,2014-02-13 05:19:00,
2014-02-12 22:25:00,33.1,23.0,29.80,South,175,0.0,5.0,66,0.00,,CLR,0.33,VWS V15.00,2014-02-13 05:25:00,
2014-02-12 22:31:00,34.1,23.2,29.80,NW,321,0.0,1.0,64,0.00,,CLR,0.33,VWS V15.00,2014-02-13 05:31:00,
2014-02-12 22:37:00,34.3,23.8,29.79,NW,321,0.0,1.0,65,0.00,,CLR,0.33,VWS V15.00,2014-02-13 05:37:00,
2014-02-12 22:42:00,34.1,23.2,29.79,NW,321,0.0,0.0,64,0.00,,CLR,0.33,VWS V15.00,2014-02-13 05:42:00,
2014-02-12 22:47:00,33.8,23.3,29.79,NNW,327,0.0,1.0,65,0.00,,CLR,0.33,VWS V15.00,2014-02-13 05:47:00,
2014-02-12 22:49:00,33.8,22.5,29.79,NE,49,1.0,1.0,63,0.00,,CLR,0.33,VWS V15.00,2014-02-13 05:49:00,
2014-02-12 22:55:00,33.8,22.9,29.78,SE,134,0.0,1.0,64,0.00,,CLR,0.33,VWS V15.00,2014-02-13 05:55:00,
2014-02-12 23:01:00,33.7,22.5,29.78,SE,130,0.0,0.0,63,0.00,,CLR,0.33,VWS V15.00,2014-02-13 06:01:00,
2014-02-12 23:07:00,33.7,21.7,29.79,North,360,0.0,6.0,61,0.00,,CLR,0.33,VWS V15.00,2014-02-13 06:07:00,
2014-02-12 23:12:00,34.1,21.3,29.79,WNW,288,0.0,4.0,59,0.00,,CLR,0.33,VWS V15.00,2014-02-13 06:12:00,
2014-02-12 23:18:00,34.4,21.6,29.79,ENE,77,0.0,2.0,59,0.00,,CLR,0.33,VWS V15.00,2014-02-13 06:18:00,
2014-02-12 23:24:00,34.9,22.0,29.78,WNW,285,0.0,2.0,59,0.00,,CLR,0.33,VWS V15.00,2014-02-13 06:24:00,
2014-02-12 23:30:00,34.9,22.0,29.78,North,5,1.0,3.0,59,0.00,,CLR,0.33,VWS V15.00,2014-02-13 06:30:00,
2014-02-12 23:36:00,35.2,22.3,29.78,NNW,329,0.0,8.0,59,0.00,,CLR,0.33,VWS V15.00,2014-02-13 06:36:00,
2014-02-12 23:42:00,35.8,21.6,29.78,NNE,24,6.0,7.0,56,0.00,,CLR,0.33,VWS V15.00,2014-02-13 06:42:00,
2014-02-12 23:47:00,36.3,21.7,29.78,East,79,1.0,12.0,55,0.00,,CLR,0.33,VWS V15.00,2014-02-13 06:47:00,
2014-02-12 23:52:00,36.8,22.2,29.76,NE,45,0.0,7.0,55,0.00,,CLR,0.33,VWS V15.00,2014-02-13 06:52:00,
2014-02-12 23:57:00,36.9,21.8,29.76,NNW,345,3.0,7.0,54,0.00,,CLR,0.33,VWS V15.00,2014-02-13 06:57:00,